WXcenter Banner NOAA Logo links to NOAA website FRD Logo links to FRD website

NOAA INL CURRENT OBSERVATIONS


NOAA AIR RESOURCES LABORATORY
MESONET WEATHER CONDITIONS FOR 15-Feb-19

Towers located at INL Facilities:

                      Time  Dir/Spd  Temp  WC  RH  Pres.
Location              MST   deg/mph   (F)  (F)  %  In.Hg

ATR                  17:00  214/ 26    26  11  92  24.74
CFA                  17:00  228/ 24    27  13  86  24.72
CIT                  17:00  214/ 21    28  14  85  24.75
INTEC                17:00  222/ 23    27  13  85  24.74
MFC                  17:00  210/ 20    29  16  82  24.53
NRF                  17:00  200/ 19    27  13  84  24.81
RWMC                 17:00  229/ 27    27  11  92  24.63
SMC                  17:00  212/ 24    28  14  83  24.81

Other towers located inside the INL:

                      Time  Dir/Spd  Temp  WC  RH  Pres.
Location              MST   deg/mph   (F)  (F)  %  In.Hg

Base of Howe Peak    17:00  227/ 27    26  11  79  24.74
Deadman Canyon       17:00  230/ 28    26  10  87  24.53
Lost River           17:00  223/ 26    27  12  86  24.67
Rover                17:00  210/ 31    28  12  97  24.63
Sand Dunes           17:00  202/ 29    27  11  83  24.79

Towers located outside the INL:

                      Time  Dir/Spd  Temp  WC  RH  Pres.
Location              MST   deg/mph   (F)  (F)  %  In.Hg

Aberdeen             17:00  202/ 11    30  21  92  25.25
Arco                 17:00  240/ 22    26  11  75
Atomic City          17:00  201/ 20    29  16  82  24.68
Blackfoot            17:00  204/ 10    30  21  83  25.18
Blue Dome            17:00  117/ 15    24  11  87
Cox's Well           17:00  228/ 19    26  12  91
Craters of the Moon  17:00  242/ 16    24  10  93  23.75
Dubois               17:00  176/ 12    25  14  87  24.21
Fort Hall            17:00  210/ 13    30  20  84  25.23
Hamer                17:00  213/ 29    29  14  82
Howe                 17:00  224/ 14    30  20  55
Idaho Falls (REC)    17:00  213/ 14    30  20  89  24.97
Kettle Butte         17:00  204/ 26    29  15  85  24.50
Minidoka             17:00  251/ 20    33  21  71  25.35
Monteview            17:00  199/ 35    28  11  89  24.81
Richfield            17:00  240/ 11    31  22  76  25.30
Roberts              17:00  193/ 18    30  18  88
Sugar City           17:00  200/ 20    29  17  89  24.75
Taber                17:00  214/ 15    29  18  85
Terreton             17:00  210/ 26    28  13  83  24.85

Updated every 5 minutes. Unreviewed data; maintenance may cause some errors.
Current conditions: 526-8884   Info: 526-2744
            

This page automatically refreshes every 5 minutes.


Modified: March 1, 2011
Dept. of Commerce |  NOAA |  NOAA Research |  ARL |  FRD Privacy |  Disclaimer |  Information Quality |  webmaster